Terminal Aerodrome Forecast
Issued by NWS

Home | Current Version | Previous Version | Text Only | Print | Product List | Glossary On
Versions: 1 2 3 4 5 6 7 8 9 10 11 12 13 14
000
FTUS45 KABQ 022334
TAFROW
TAF
KROW 022334Z 0300/0324 16011G18KT P6SM BKN250
     FM030200 16008KT P6SM FEW100 BKN200
     FM031000 VRB05KT P6SM SCT100 BKN200
     FM031900 17011KT P6SM BKN110=

USA.gov is the U.S. government's official web portal to all federal, state and local government web resources and services.